sensor_id;sensor_type;location;lat;lon;timestamp;pressure;altitude;pressure_sealevel;temperature;humidity
21742;BME280;11033;47.490;11.116;2023-02-22T00:00:29;93075.13;;;4.19;56.90
21742;BME280;11033;47.490;11.116;2023-02-22T00:03:19;93069.44;;;4.23;56.74
21742;BME280;11033;47.490;11.116;2023-02-22T00:05:50;93064.69;;;4.19;56.60
21742;BME280;11033;47.490;11.116;2023-02-22T00:08:18;93066.78;;;4.15;57.69
21742;BME280;11033;47.490;11.116;2023-02-22T00:10:44;93059.78;;;4.16;58.93
21742;BME280;11033;47.490;11.116;2023-02-22T00:13:13;93061.72;;;4.13;57.94
21742;BME280;11033;47.490;11.116;2023-02-22T00:15:39;93067.91;;;4.12;57.35
21742;BME280;11033;47.490;11.116;2023-02-22T00:18:11;93062.53;;;4.14;57.97
21742;BME280;11033;47.490;11.116;2023-02-22T00:20:37;93064.03;;;4.17;57.83
21742;BME280;11033;47.490;11.116;2023-02-22T00:23:04;93060.59;;;4.16;57.51
21742;BME280;11033;47.490;11.116;2023-02-22T00:25:31;93059.94;;;4.14;57.58
21742;BME280;11033;47.490;11.116;2023-02-22T00:27:57;93055.09;;;4.19;56.61
21742;BME280;11033;47.490;11.116;2023-02-22T00:30:27;93053.41;;;4.10;58.51
21742;BME280;11033;47.490;11.116;2023-02-22T00:32:55;93048.69;;;4.13;57.25
21742;BME280;11033;47.490;11.116;2023-02-22T00:35:22;93052.44;;;4.11;58.51
21742;BME280;11033;47.490;11.116;2023-02-22T00:37:51;93049.38;;;4.16;57.63
21742;BME280;11033;47.490;11.116;2023-02-22T00:40:20;93048.84;;;4.12;57.51
21742;BME280;11033;47.490;11.116;2023-02-22T00:42:45;93051.50;;;4.20;56.46
21742;BME280;11033;47.490;11.116;2023-02-22T00:45:12;93050.50;;;4.13;57.32
21742;BME280;11033;47.490;11.116;2023-02-22T00:47:38;93052.44;;;4.11;56.51
21742;BME280;11033;47.490;11.116;2023-02-22T00:50:03;93046.91;;;4.14;57.04
21742;BME280;11033;47.490;11.116;2023-02-22T00:52:29;93052.75;;;4.08;57.34
21742;BME280;11033;47.490;11.116;2023-02-22T00:54:54;93044.25;;;4.06;57.01
21742;BME280;11033;47.490;11.116;2023-02-22T00:57:20;93043.63;;;4.12;57.52
21742;BME280;11033;47.490;11.116;2023-02-22T00:59:46;93043.94;;;4.09;58.05
21742;BME280;11033;47.490;11.116;2023-02-22T01:02:11;93033.53;;;4.09;58.04
21742;BME280;11033;47.490;11.116;2023-02-22T01:04:37;93040.69;;;4.07;56.76
21742;BME280;11033;47.490;11.116;2023-02-22T01:07:03;93030.56;;;4.04;57.36
21742;BME280;11033;47.490;11.116;2023-02-22T01:09:28;93037.00;;;3.92;58.04
21742;BME280;11033;47.490;11.116;2023-02-22T01:11:54;93029.91;;;4.02;57.57
21742;BME280;11033;47.490;11.116;2023-02-22T01:14:21;93030.56;;;4.04;58.28
21742;BME280;11033;47.490;11.116;2023-02-22T01:16:48;93020.13;;;4.04;57.14
21742;BME280;11033;47.490;11.116;2023-02-22T01:19:14;93014.22;;;3.94;57.72
21742;BME280;11033;47.490;11.116;2023-02-22T01:21:40;93016.66;;;3.95;58.18
21742;BME280;11033;47.490;11.116;2023-02-22T01:24:05;93017.78;;;3.93;57.82
21742;BME280;11033;47.490;11.116;2023-02-22T01:26:31;93008.78;;;3.87;57.43
21742;BME280;11033;47.490;11.116;2023-02-22T01:28:56;92998.16;;;3.80;57.68
21742;BME280;11033;47.490;11.116;2023-02-22T01:31:21;93004.28;;;3.71;59.10
21742;BME280;11033;47.490;11.116;2023-02-22T01:33:48;93002.38;;;3.81;57.74
21742;BME280;11033;47.490;11.116;2023-02-22T01:36:15;92994.69;;;3.72;57.73
21742;BME280;11033;47.490;11.116;2023-02-22T01:38:43;92991.25;;;3.71;58.03
21742;BME280;11033;47.490;11.116;2023-02-22T01:41:09;92992.75;;;3.74;59.41
21742;BME280;11033;47.490;11.116;2023-02-22T01:43:35;93000.41;;;3.75;59.30
21742;BME280;11033;47.490;11.116;2023-02-22T01:46:05;92985.69;;;3.66;59.38
21742;BME280;11033;47.490;11.116;2023-02-22T01:48:41;92980.38;;;3.76;58.25
21742;BME280;11033;47.490;11.116;2023-02-22T01:53:57;92964.84;;;3.66;58.96
21742;BME280;11033;47.490;11.116;2023-02-22T01:56:25;92966.50;;;3.67;57.59
21742;BME280;11033;47.490;11.116;2023-02-22T01:58:56;92968.06;;;3.60;59.18
21742;BME280;11033;47.490;11.116;2023-02-22T02:01:24;92973.59;;;3.57;59.51
21742;BME280;11033;47.490;11.116;2023-02-22T02:03:51;92975.94;;;3.68;57.92
21742;BME280;11033;47.490;11.116;2023-02-22T02:06:19;92969.16;;;3.75;58.45
21742;BME280;11033;47.490;11.116;2023-02-22T02:08:59;92972.16;;;3.89;57.69
21742;BME280;11033;47.490;11.116;2023-02-22T02:11:27;92966.84;;;3.72;58.73
21742;BME280;11033;47.490;11.116;2023-02-22T02:13:54;92976.66;;;3.78;57.69
21742;BME280;11033;47.490;11.116;2023-02-22T02:16:22;92968.84;;;3.78;57.39
21742;BME280;11033;47.490;11.116;2023-02-22T02:18:48;92966.38;;;3.77;58.37
21742;BME280;11033;47.490;11.116;2023-02-22T02:27:13;92965.97;;;3.64;58.56
21742;BME280;11033;47.490;11.116;2023-02-22T02:30:05;92954.53;;;3.57;58.24
21742;BME280;11033;47.490;11.116;2023-02-22T02:32:51;92955.06;;;3.60;57.99
21742;BME280;11033;47.490;11.116;2023-02-22T02:38:01;92954.75;;;3.63;57.90
21742;BME280;11033;47.490;11.116;2023-02-22T02:40:38;92950.81;;;3.59;58.20
21742;BME280;11033;47.490;11.116;2023-02-22T02:48:31;92955.00;;;3.52;58.86
21742;BME280;11033;47.490;11.116;2023-02-22T02:51:00;92946.47;;;3.42;59.81
21742;BME280;11033;47.490;11.116;2023-02-22T02:53:36;92948.78;;;3.45;58.79
21742;BME280;11033;47.490;11.116;2023-02-22T02:56:03;92947.81;;;3.46;57.59
21742;BME280;11033;47.490;11.116;2023-02-22T02:58:28;92947.28;;;3.42;58.71
21742;BME280;11033;47.490;11.116;2023-02-22T03:00:57;92948.09;;;3.43;58.84
21742;BME280;11033;47.490;11.116;2023-02-22T03:07:01;92933.75;;;3.39;58.85
21742;BME280;11033;47.490;11.116;2023-02-22T03:09:52;92937.63;;;3.35;58.75
21742;BME280;11033;47.490;11.116;2023-02-22T03:17:51;92939.94;;;3.38;59.61
21742;BME280;11033;47.490;11.116;2023-02-22T03:23:31;92943.91;;;3.50;57.57
21742;BME280;11033;47.490;11.116;2023-02-22T03:26:04;92940.00;;;3.46;58.32
21742;BME280;11033;47.490;11.116;2023-02-22T03:28:32;92939.03;;;3.47;58.71
21742;BME280;11033;47.490;11.116;2023-02-22T03:31:05;92944.03;;;3.40;59.89
21742;BME280;11033;47.490;11.116;2023-02-22T03:33:38;92945.16;;;3.38;59.48
21742;BME280;11033;47.490;11.116;2023-02-22T03:36:22;92940.97;;;3.45;58.70
21742;BME280;11033;47.490;11.116;2023-02-22T03:38:51;92941.78;;;3.45;58.29
21742;BME280;11033;47.490;11.116;2023-02-22T03:41:22;92938.06;;;3.48;57.07
21742;BME280;11033;47.490;11.116;2023-02-22T03:43:58;92941.56;;;3.39;58.65
21742;BME280;11033;47.490;11.116;2023-02-22T03:46:25;92931.25;;;3.29;59.69
21742;BME280;11033;47.490;11.116;2023-02-22T03:49:05;92937.78;;;3.33;58.24
21742;BME280;11033;47.490;11.116;2023-02-22T03:51:34;92938.47;;;3.17;59.81
21742;BME280;11033;47.490;11.116;2023-02-22T03:54:00;92938.97;;;3.21;59.19
21742;BME280;11033;47.490;11.116;2023-02-22T03:56:29;92938.91;;;3.31;58.15
21742;BME280;11033;47.490;11.116;2023-02-22T03:59:04;92941.72;;;3.19;58.82
21742;BME280;11033;47.490;11.116;2023-02-22T04:01:30;92938.31;;;3.19;59.45
21742;BME280;11033;47.490;11.116;2023-02-22T04:03:55;92941.44;;;3.23;59.56
21742;BME280;11033;47.490;11.116;2023-02-22T04:06:20;92939.56;;;3.33;58.44
21742;BME280;11033;47.490;11.116;2023-02-22T04:08:46;92945.38;;;3.09;60.46
21742;BME280;11033;47.490;11.116;2023-02-22T04:11:11;92950.28;;;3.12;59.69
21742;BME280;11033;47.490;11.116;2023-02-22T04:13:36;92940.69;;;3.12;59.70
21742;BME280;11033;47.490;11.116;2023-02-22T04:16:01;92943.09;;;3.06;58.77
21742;BME280;11033;47.490;11.116;2023-02-22T04:18:27;92933.44;;;2.98;60.03
21742;BME280;11033;47.490;11.116;2023-02-22T04:20:52;92933.00;;;2.85;59.91
21742;BME280;11033;47.490;11.116;2023-02-22T04:23:17;92937.16;;;2.78;60.05
21742;BME280;11033;47.490;11.116;2023-02-22T04:25:43;92935.81;;;2.74;60.73
21742;BME280;11033;47.490;11.116;2023-02-22T04:28:08;92928.09;;;2.82;60.07
21742;BME280;11033;47.490;11.116;2023-02-22T04:30:33;92931.28;;;2.94;59.25
21742;BME280;11033;47.490;11.116;2023-02-22T04:32:58;92925.34;;;2.83;61.04
21742;BME280;11033;47.490;11.116;2023-02-22T04:35:24;92925.66;;;2.80;61.03
21742;BME280;11033;47.490;11.116;2023-02-22T04:37:49;92927.28;;;2.64;61.06
21742;BME280;11033;47.490;11.116;2023-02-22T04:40:15;92932.34;;;2.65;60.42
21742;BME280;11033;47.490;11.116;2023-02-22T04:42:40;92928.13;;;2.54;62.50
21742;BME280;11033;47.490;11.116;2023-02-22T04:45:07;92924.16;;;2.60;60.96
21742;BME280;11033;47.490;11.116;2023-02-22T04:47:33;92913.63;;;2.62;59.71
21742;BME280;11033;47.490;11.116;2023-02-22T04:49:59;92927.47;;;2.52;60.49
21742;BME280;11033;47.490;11.116;2023-02-22T04:52:25;92914.41;;;2.44;60.66
21742;BME280;11033;47.490;11.116;2023-02-22T04:54:50;92914.84;;;2.40;60.85
21742;BME280;11033;47.490;11.116;2023-02-22T04:57:16;92908.66;;;2.41;62.04
21742;BME280;11033;47.490;11.116;2023-02-22T04:59:41;92909.03;;;2.46;60.95
21742;BME280;11033;47.490;11.116;2023-02-22T05:02:06;92915.06;;;2.46;62.77
21742;BME280;11033;47.490;11.116;2023-02-22T05:04:32;92913.13;;;2.31;63.05
21742;BME280;11033;47.490;11.116;2023-02-22T05:06:57;92910.38;;;2.32;62.25
21742;BME280;11033;47.490;11.116;2023-02-22T05:09:22;92910.97;;;2.26;62.67
21742;BME280;11033;47.490;11.116;2023-02-22T05:11:47;92914.25;;;2.46;61.43
21742;BME280;11033;47.490;11.116;2023-02-22T05:14:13;92909.50;;;2.41;62.30
21742;BME280;11033;47.490;11.116;2023-02-22T05:16:38;92896.28;;;2.52;61.25
21742;BME280;11033;47.490;11.116;2023-02-22T05:19:04;92900.34;;;2.37;62.10
21742;BME280;11033;47.490;11.116;2023-02-22T05:21:29;92903.03;;;2.45;60.74
21742;BME280;11033;47.490;11.116;2023-02-22T05:23:54;92898.22;;;2.50;61.03
21742;BME280;11033;47.490;11.116;2023-02-22T05:26:20;92891.75;;;2.54;60.74
21742;BME280;11033;47.490;11.116;2023-02-22T05:28:45;92892.72;;;2.53;60.96
21742;BME280;11033;47.490;11.116;2023-02-22T05:31:10;92897.16;;;2.43;60.36
21742;BME280;11033;47.490;11.116;2023-02-22T05:33:36;92897.00;;;2.27;60.81
21742;BME280;11033;47.490;11.116;2023-02-22T05:36:01;92896.84;;;2.29;61.51
21742;BME280;11033;47.490;11.116;2023-02-22T05:38:27;92901.16;;;2.20;62.25
21742;BME280;11033;47.490;11.116;2023-02-22T05:40:53;92893.66;;;2.17;62.34
21742;BME280;11033;47.490;11.116;2023-02-22T05:43:18;92893.50;;;2.18;61.28
21742;BME280;11033;47.490;11.116;2023-02-22T05:45:43;92889.28;;;2.17;61.14
21742;BME280;11033;47.490;11.116;2023-02-22T05:48:09;92889.41;;;2.16;60.49
21742;BME280;11033;47.490;11.116;2023-02-22T05:50:34;92892.97;;;2.15;60.66
21742;BME280;11033;47.490;11.116;2023-02-22T05:52:59;92899.53;;;2.19;62.04
21742;BME280;11033;47.490;11.116;2023-02-22T05:55:25;92894.69;;;2.24;62.75
21742;BME280;11033;47.490;11.116;2023-02-22T05:57:51;92897.13;;;2.08;63.20
21742;BME280;11033;47.490;11.116;2023-02-22T06:00:19;92895.72;;;2.13;61.88
21742;BME280;11033;47.490;11.116;2023-02-22T06:02:52;92889.50;;;2.24;60.58
21742;BME280;11033;47.490;11.116;2023-02-22T06:05:18;92894.56;;;2.26;61.21
21742;BME280;11033;47.490;11.116;2023-02-22T06:07:43;92893.72;;;2.25;61.61
21742;BME280;11033;47.490;11.116;2023-02-22T06:10:08;92894.31;;;2.19;62.03
21742;BME280;11033;47.490;11.116;2023-02-22T06:12:34;92894.09;;;2.12;61.74
21742;BME280;11033;47.490;11.116;2023-02-22T06:14:59;92900.09;;;2.13;61.11
21742;BME280;11033;47.490;11.116;2023-02-22T06:17:24;92893.56;;;2.09;60.96
21742;BME280;11033;47.490;11.116;2023-02-22T06:19:49;92892.81;;;1.99;62.05
21742;BME280;11033;47.490;11.116;2023-02-22T06:22:16;92901.28;;;2.01;61.86
21742;BME280;11033;47.490;11.116;2023-02-22T06:24:42;92900.06;;;1.95;62.30
21742;BME280;11033;47.490;11.116;2023-02-22T06:27:07;92898.41;;;1.94;61.99
21742;BME280;11033;47.490;11.116;2023-02-22T06:29:33;92894.72;;;1.97;61.34
21742;BME280;11033;47.490;11.116;2023-02-22T06:31:58;92899.94;;;1.97;61.61
21742;BME280;11033;47.490;11.116;2023-02-22T06:34:23;92901.00;;;1.94;62.06
21742;BME280;11033;47.490;11.116;2023-02-22T06:36:49;92907.00;;;1.95;61.72
21742;BME280;11033;47.490;11.116;2023-02-22T06:39:15;92912.91;;;1.97;60.98
21742;BME280;11033;47.490;11.116;2023-02-22T06:41:41;92909.88;;;2.01;61.01
21742;BME280;11033;47.490;11.116;2023-02-22T06:44:08;92908.38;;;1.99;63.20
21742;BME280;11033;47.490;11.116;2023-02-22T06:46:34;92919.75;;;1.98;62.42
21742;BME280;11033;47.490;11.116;2023-02-22T06:49:00;92923.38;;;2.05;62.85
21742;BME280;11033;47.490;11.116;2023-02-22T06:51:26;92919.84;;;2.06;61.83
21742;BME280;11033;47.490;11.116;2023-02-22T06:53:51;92921.84;;;2.12;61.72
21742;BME280;11033;47.490;11.116;2023-02-22T06:56:17;92918.44;;;2.11;61.88
21742;BME280;11033;47.490;11.116;2023-02-22T06:58:43;92920.88;;;2.13;61.15
21742;BME280;11033;47.490;11.116;2023-02-22T07:01:08;92917.19;;;2.15;60.88
21742;BME280;11033;47.490;11.116;2023-02-22T07:03:34;92921.41;;;2.16;61.29
21742;BME280;11033;47.490;11.116;2023-02-22T07:05:59;92917.03;;;2.17;61.22
21742;BME280;11033;47.490;11.116;2023-02-22T07:08:25;92921.06;;;2.29;61.88
21742;BME280;11033;47.490;11.116;2023-02-22T07:10:50;92920.53;;;2.26;62.87
21742;BME280;11033;47.490;11.116;2023-02-22T07:13:16;92925.47;;;2.46;60.70
21742;BME280;11033;47.490;11.116;2023-02-22T07:15:41;92932.88;;;2.41;61.53
21742;BME280;11033;47.490;11.116;2023-02-22T07:18:07;92922.84;;;2.46;60.63
21742;BME280;11033;47.490;11.116;2023-02-22T07:20:32;92920.63;;;2.51;61.70
21742;BME280;11033;47.490;11.116;2023-02-22T07:22:58;92924.97;;;2.61;60.58
21742;BME280;11033;47.490;11.116;2023-02-22T07:25:24;92918.38;;;2.66;59.82
21742;BME280;11033;47.490;11.116;2023-02-22T07:27:50;92920.22;;;2.74;58.84
21742;BME280;11033;47.490;11.116;2023-02-22T07:32:45;92914.78;;;2.85;59.45
21742;BME280;11033;47.490;11.116;2023-02-22T07:35:16;92919.41;;;2.91;59.56
21742;BME280;11033;47.490;11.116;2023-02-22T07:37:42;92909.16;;;3.15;58.20
21742;BME280;11033;47.490;11.116;2023-02-22T07:40:09;92909.53;;;3.21;58.03
21742;BME280;11033;47.490;11.116;2023-02-22T07:45:17;92913.25;;;3.36;57.88
21742;BME280;11033;47.490;11.116;2023-02-22T07:47:45;92914.88;;;3.37;57.27
21742;BME280;11033;47.490;11.116;2023-02-22T07:50:12;92909.41;;;3.48;56.77
21742;BME280;11033;47.490;11.116;2023-02-22T07:52:38;92902.97;;;3.60;57.13
21742;BME280;11033;47.490;11.116;2023-02-22T07:55:04;92900.75;;;3.73;56.59
21742;BME280;11033;47.490;11.116;2023-02-22T07:57:31;92910.53;;;3.71;56.44
21742;BME280;11033;47.490;11.116;2023-02-22T07:59:57;92899.47;;;3.77;56.29
21742;BME280;11033;47.490;11.116;2023-02-22T08:02:24;92899.09;;;3.90;56.30
21742;BME280;11033;47.490;11.116;2023-02-22T08:04:50;92900.97;;;4.14;56.13
21742;BME280;11033;47.490;11.116;2023-02-22T08:07:15;92886.31;;;4.13;55.48
21742;BME280;11033;47.490;11.116;2023-02-22T08:09:40;92887.31;;;4.20;55.94
21742;BME280;11033;47.490;11.116;2023-02-22T08:12:05;92887.81;;;4.32;55.43
21742;BME280;11033;47.490;11.116;2023-02-22T08:14:31;92889.69;;;4.56;55.26
21742;BME280;11033;47.490;11.116;2023-02-22T08:16:56;92879.28;;;4.80;54.94
21742;BME280;11033;47.490;11.116;2023-02-22T08:19:21;92884.50;;;4.72;54.50
21742;BME280;11033;47.490;11.116;2023-02-22T08:21:47;92879.28;;;4.72;54.96
21742;BME280;11033;47.490;11.116;2023-02-22T08:24:12;92876.03;;;4.78;54.62
21742;BME280;11033;47.490;11.116;2023-02-22T08:26:43;92876.34;;;4.91;54.44
21742;BME280;11033;47.490;11.116;2023-02-22T08:29:09;92882.22;;;5.09;54.19
21742;BME280;11033;47.490;11.116;2023-02-22T08:31:34;92869.16;;;5.18;54.12
21742;BME280;11033;47.490;11.116;2023-02-22T08:33:59;92873.75;;;5.32;53.71
21742;BME280;11033;47.490;11.116;2023-02-22T08:36:25;92864.25;;;5.39;53.01
21742;BME280;11033;47.490;11.116;2023-02-22T08:38:51;92869.31;;;5.49;53.03
21742;BME280;11033;47.490;11.116;2023-02-22T08:41:16;92871.03;;;5.81;52.11
21742;BME280;11033;47.490;11.116;2023-02-22T08:43:42;92865.63;;;5.82;52.28
21742;BME280;11033;47.490;11.116;2023-02-22T08:46:07;92863.34;;;5.95;52.71
21742;BME280;11033;47.490;11.116;2023-02-22T08:48:33;92857.66;;;6.23;52.00
21742;BME280;11033;47.490;11.116;2023-02-22T08:50:58;92855.19;;;6.29;51.53
21742;BME280;11033;47.490;11.116;2023-02-22T08:53:23;92859.22;;;6.71;51.03
21742;BME280;11033;47.490;11.116;2023-02-22T08:55:49;92848.50;;;7.04;49.98
21742;BME280;11033;47.490;11.116;2023-02-22T08:58:14;92846.06;;;7.02;50.99
21742;BME280;11033;47.490;11.116;2023-02-22T09:00:40;92837.31;;;7.10;50.70
21742;BME280;11033;47.490;11.116;2023-02-22T09:03:09;92837.31;;;7.47;49.88
21742;BME280;11033;47.490;11.116;2023-02-22T09:05:36;92832.41;;;7.82;48.67
21742;BME280;11033;47.490;11.116;2023-02-22T09:08:01;92838.09;;;8.00;49.37
21742;BME280;11033;47.490;11.116;2023-02-22T09:10:29;92838.50;;;8.48;46.17
21742;BME280;11033;47.490;11.116;2023-02-22T09:12:56;92822.53;;;8.85;46.36
21742;BME280;11033;47.490;11.116;2023-02-22T09:15:22;92829.94;;;9.18;45.04
21742;BME280;11033;47.490;11.116;2023-02-22T09:17:48;92832.03;;;9.29;45.02
21742;BME280;11033;47.490;11.116;2023-02-22T09:20:17;92812.16;;;9.76;43.12
21742;BME280;11033;47.490;11.116;2023-02-22T09:22:46;92804.22;;;10.04;43.31
21742;BME280;11033;47.490;11.116;2023-02-22T09:25:12;92816.09;;;10.28;43.82
21742;BME280;11033;47.490;11.116;2023-02-22T09:27:38;92802.25;;;10.60;44.00
21742;BME280;11033;47.490;11.116;2023-02-22T09:30:04;92799.06;;;10.78;41.12
21742;BME280;11033;47.490;11.116;2023-02-22T09:32:31;92799.75;;;11.06;39.52
21742;BME280;11033;47.490;11.116;2023-02-22T09:34:56;92792.41;;;11.02;41.34
21742;BME280;11033;47.490;11.116;2023-02-22T09:37:22;92787.19;;;11.35;42.45
21742;BME280;11033;47.490;11.116;2023-02-22T09:39:47;92785.75;;;11.72;43.61
21742;BME280;11033;47.490;11.116;2023-02-22T09:42:34;92784.28;;;11.96;40.87
21742;BME280;11033;47.490;11.116;2023-02-22T09:45:07;92784.28;;;12.02;35.08
21742;BME280;11033;47.490;11.116;2023-02-22T09:48:00;92781.72;;;12.34;37.40
21742;BME280;11033;47.490;11.116;2023-02-22T09:50:29;92781.72;;;12.41;36.49
21742;BME280;11033;47.490;11.116;2023-02-22T09:53:03;92782.53;;;12.41;34.89
21742;BME280;11033;47.490;11.116;2023-02-22T09:55:33;92780.25;;;12.89;36.58
21742;BME280;11033;47.490;11.116;2023-02-22T09:58:05;92768.59;;;12.65;36.48
21742;BME280;11033;47.490;11.116;2023-02-22T10:00:35;92775.94;;;12.95;36.15
21742;BME280;11033;47.490;11.116;2023-02-22T10:05:41;92765.97;;;13.78;36.19
21742;BME280;11033;47.490;11.116;2023-02-22T10:08:14;92769.72;;;13.46;35.35
21742;BME280;11033;47.490;11.116;2023-02-22T10:10:41;92767.06;;;13.71;34.77
21742;BME280;11033;47.490;11.116;2023-02-22T10:21:45;92751.56;;;15.26;33.04
21742;BME280;11033;47.490;11.116;2023-02-22T10:24:17;92750.03;;;15.95;33.22
21742;BME280;11033;47.490;11.116;2023-02-22T10:26:49;92746.66;;;16.34;32.73
21742;BME280;11033;47.490;11.116;2023-02-22T10:29:52;92741.50;;;16.56;31.43
21742;BME280;11033;47.490;11.116;2023-02-22T10:32:19;92742.50;;;16.78;28.75
21742;BME280;11033;47.490;11.116;2023-02-22T10:34:48;92747.97;;;17.00;28.88
21742;BME280;11033;47.490;11.116;2023-02-22T10:37:27;92741.78;;;17.11;30.61
21742;BME280;11033;47.490;11.116;2023-02-22T10:42:29;92738.03;;;18.47;28.89
21742;BME280;11033;47.490;11.116;2023-02-22T10:44:54;92735.34;;;18.47;28.52
21742;BME280;11033;47.490;11.116;2023-02-22T10:47:20;92727.69;;;18.94;30.70
21742;BME280;11033;47.490;11.116;2023-02-22T10:49:50;92723.84;;;19.12;28.30
21742;BME280;11033;47.490;11.116;2023-02-22T10:54:50;92719.50;;;19.97;25.51
21742;BME280;11033;47.490;11.116;2023-02-22T10:57:20;92718.59;;;20.70;27.49
21742;BME280;11033;47.490;11.116;2023-02-22T10:59:47;92715.19;;;20.27;25.67
21742;BME280;11033;47.490;11.116;2023-02-22T11:02:48;92718.97;;;20.94;27.73
21742;BME280;11033;47.490;11.116;2023-02-22T11:05:26;92715.91;;;20.65;23.99
21742;BME280;11033;47.490;11.116;2023-02-22T11:08:13;92708.56;;;21.13;27.16
21742;BME280;11033;47.490;11.116;2023-02-22T11:10:39;92706.78;;;22.25;26.07
21742;BME280;11033;47.490;11.116;2023-02-22T11:15:59;92711.59;;;22.28;23.12
21742;BME280;11033;47.490;11.116;2023-02-22T11:18:29;92705.41;;;21.36;24.55
21742;BME280;11033;47.490;11.116;2023-02-22T11:21:01;92697.69;;;21.80;24.47
21742;BME280;11033;47.490;11.116;2023-02-22T11:23:27;92695.78;;;21.81;23.58
21742;BME280;11033;47.490;11.116;2023-02-22T11:26:22;92684.75;;;23.03;24.38
21742;BME280;11033;47.490;11.116;2023-02-22T11:28:49;92682.03;;;23.13;24.15
21742;BME280;11033;47.490;11.116;2023-02-22T11:31:21;92682.22;;;22.62;23.68
21742;BME280;11033;47.490;11.116;2023-02-22T11:33:55;92681.59;;;21.55;22.78
21742;BME280;11033;47.490;11.116;2023-02-22T11:36:31;92669.19;;;23.00;23.82
21742;BME280;11033;47.490;11.116;2023-02-22T11:38:57;92668.72;;;21.57;24.06
21742;BME280;11033;47.490;11.116;2023-02-22T11:41:31;92672.19;;;21.93;22.77
21742;BME280;11033;47.490;11.116;2023-02-22T11:44:19;92667.63;;;22.14;22.59
21742;BME280;11033;47.490;11.116;2023-02-22T11:46:45;92658.69;;;22.39;23.81
21742;BME280;11033;47.490;11.116;2023-02-22T11:49:12;92663.69;;;22.66;22.97
21742;BME280;11033;47.490;11.116;2023-02-22T12:03:11;92650.75;;;21.42;23.87
21742;BME280;11033;47.490;11.116;2023-02-22T12:05:50;92646.47;;;21.77;24.81
21742;BME280;11033;47.490;11.116;2023-02-22T12:11:30;92644.25;;;21.99;25.22
21742;BME280;11033;47.490;11.116;2023-02-22T12:20:01;92644.25;;;20.87;24.37
21742;BME280;11033;47.490;11.116;2023-02-22T12:22:33;92645.88;;;20.99;24.08
21742;BME280;11033;47.490;11.116;2023-02-22T12:25:06;92630.34;;;21.11;24.48
21742;BME280;11033;47.490;11.116;2023-02-22T12:27:43;92634.06;;;20.84;24.85
21742;BME280;11033;47.490;11.116;2023-02-22T12:30:34;92626.94;;;20.38;24.98
21742;BME280;11033;47.490;11.116;2023-02-22T12:33:08;92623.22;;;20.44;25.62
21742;BME280;11033;47.490;11.116;2023-02-22T12:35:51;92628.38;;;20.03;26.42
21742;BME280;11033;47.490;11.116;2023-02-22T12:43:56;92609.63;;;20.55;25.58
21742;BME280;11033;47.490;11.116;2023-02-22T12:46:33;92620.09;;;20.77;25.39
21742;BME280;11033;47.490;11.116;2023-02-22T12:49:22;92610.19;;;20.05;27.12
21742;BME280;11033;47.490;11.116;2023-02-22T12:52:11;92606.22;;;20.96;26.88
21742;BME280;11033;47.490;11.116;2023-02-22T12:54:52;92606.19;;;20.75;26.42
21742;BME280;11033;47.490;11.116;2023-02-22T12:57:36;92606.94;;;20.61;26.71
21742;BME280;11033;47.490;11.116;2023-02-22T13:00:19;92597.81;;;20.41;26.37
21742;BME280;11033;47.490;11.116;2023-02-22T13:03:02;92598.13;;;20.65;25.31
21742;BME280;11033;47.490;11.116;2023-02-22T13:05:33;92597.94;;;20.14;25.86
21742;BME280;11033;47.490;11.116;2023-02-22T13:10:55;92600.53;;;19.99;26.64
21742;BME280;11033;47.490;11.116;2023-02-22T13:13:40;92586.72;;;20.17;26.42
21742;BME280;11033;47.490;11.116;2023-02-22T13:18:57;92595.22;;;18.88;26.92
21742;BME280;11033;47.490;11.116;2023-02-22T13:21:42;92583.91;;;19.08;26.96
21742;BME280;11033;47.490;11.116;2023-02-22T13:24:33;92586.34;;;18.82;27.83
21742;BME280;11033;47.490;11.116;2023-02-22T13:27:12;92582.72;;;18.66;27.32
21742;BME280;11033;47.490;11.116;2023-02-22T13:29:43;92584.84;;;18.91;28.01
21742;BME280;11033;47.490;11.116;2023-02-22T13:32:19;92590.00;;;18.49;28.21
21742;BME280;11033;47.490;11.116;2023-02-22T13:34:59;92586.53;;;18.49;29.13
21742;BME280;11033;47.490;11.116;2023-02-22T13:37:47;92581.50;;;18.79;28.68
21742;BME280;11033;47.490;11.116;2023-02-22T13:43:31;92580.59;;;18.95;29.41
21742;BME280;11033;47.490;11.116;2023-02-22T13:46:33;92576.16;;;19.06;29.02
21742;BME280;11033;47.490;11.116;2023-02-22T13:49:25;92568.50;;;20.14;29.27
21742;BME280;11033;47.490;11.116;2023-02-22T13:52:01;92573.50;;;20.73;28.67
21742;BME280;11033;47.490;11.116;2023-02-22T13:56:59;92578.91;;;20.06;29.02
21742;BME280;11033;47.490;11.116;2023-02-22T13:59:32;92579.41;;;20.80;28.27
21742;BME280;11033;47.490;11.116;2023-02-22T14:01:59;92571.31;;;20.45;28.95
21742;BME280;11033;47.490;11.116;2023-02-22T14:06:55;92571.34;;;20.50;28.56
21742;BME280;11033;47.490;11.116;2023-02-22T14:09:48;92572.69;;;21.90;28.53
21742;BME280;11033;47.490;11.116;2023-02-22T14:20:23;92557.06;;;23.11;28.03
21742;BME280;11033;47.490;11.116;2023-02-22T14:22:56;92554.97;;;23.70;26.10
21742;BME280;11033;47.490;11.116;2023-02-22T14:25:31;92548.16;;;24.26;25.35
21742;BME280;11033;47.490;11.116;2023-02-22T14:27:57;92547.88;;;25.26;26.49
21742;BME280;11033;47.490;11.116;2023-02-22T14:30:26;92541.38;;;24.10;25.38
21742;BME280;11033;47.490;11.116;2023-02-22T14:32:52;92547.94;;;25.21;27.24
21742;BME280;11033;47.490;11.116;2023-02-22T14:35:19;92545.84;;;25.18;25.54
21742;BME280;11033;47.490;11.116;2023-02-22T14:37:55;92542.06;;;25.98;24.43
21742;BME280;11033;47.490;11.116;2023-02-22T14:40:25;92546.22;;;25.77;24.95
21742;BME280;11033;47.490;11.116;2023-02-22T14:43:01;92547.09;;;26.05;24.27
21742;BME280;11033;47.490;11.116;2023-02-22T14:45:30;92538.34;;;25.80;24.24
21742;BME280;11033;47.490;11.116;2023-02-22T14:48:33;92549.19;;;25.10;24.98
21742;BME280;11033;47.490;11.116;2023-02-22T14:51:21;92540.22;;;24.96;24.38